createdAt,value
2018-05-13T00:00:37.611Z,0
2018-05-13T00:01:18.158Z,0
2018-05-13T00:01:58.699Z,0
2018-05-13T00:02:39.247Z,0
2018-05-13T00:03:20.118Z,0
2018-05-13T00:04:00.680Z,0
2018-05-13T00:04:41.212Z,0
2018-05-13T00:05:21.823Z,0
2018-05-13T00:06:02.319Z,0
2018-05-13T00:06:42.863Z,0
2018-05-13T00:07:23.553Z,0
2018-05-13T00:08:04.133Z,0
2018-05-13T00:08:44.684Z,0
2018-05-13T00:09:25.290Z,0
2018-05-13T00:10:05.771Z,0
2018-05-13T00:10:46.332Z,0
2018-05-13T00:11:26.867Z,0
2018-05-13T00:12:07.391Z,0
2018-05-13T00:12:47.979Z,0
2018-05-13T00:13:28.849Z,0
2018-05-13T00:14:09.449Z,0
2018-05-13T00:14:49.968Z,0
2018-05-13T00:15:30.517Z,0
2018-05-13T00:16:11.080Z,0
2018-05-13T00:16:51.650Z,0
2018-05-13T00:17:32.161Z,0
2018-05-13T00:18:12.710Z,0
2018-05-13T00:18:53.258Z,0
2018-05-13T00:19:33.877Z,0
2018-05-13T00:20:14.393Z,0
2018-05-13T00:20:54.975Z,0
2018-05-13T00:21:35.532Z,0
2018-05-13T00:22:16.091Z,0
2018-05-13T00:22:56.756Z,0
2018-05-13T00:23:37.336Z,0
2018-05-13T00:24:17.851Z,0
2018-05-13T00:24:58.449Z,0
2018-05-13T00:25:39.034Z,0
2018-05-13T00:26:19.614Z,0
2018-05-13T00:27:00.207Z,0
2018-05-13T00:27:40.776Z,0
2018-05-13T00:28:21.274Z,0
2018-05-13T00:29:01.838Z,0
2018-05-13T00:29:42.380Z,0
2018-05-13T00:30:22.999Z,0
2018-05-13T00:31:03.463Z,0
2018-05-13T00:31:44.027Z,0
2018-05-13T00:32:24.613Z,0
2018-05-13T00:33:05.133Z,0
2018-05-13T00:33:45.617Z,0
2018-05-13T00:34:26.166Z,0
2018-05-13T00:35:06.758Z,0
2018-05-13T00:35:47.302Z,0
2018-05-13T00:36:27.788Z,0
2018-05-13T00:37:08.379Z,0
2018-05-13T00:37:48.960Z,0
2018-05-13T00:38:29.458Z,0
2018-05-13T00:39:09.993Z,0
2018-05-13T00:39:50.539Z,0
2018-05-13T00:40:31.106Z,0
2018-05-13T00:41:11.647Z,0
2018-05-13T00:41:52.257Z,0
2018-05-13T00:42:32.830Z,0
2018-05-13T00:43:13.446Z,0
2018-05-13T00:43:53.984Z,0
2018-05-13T00:44:34.547Z,0
2018-05-13T00:45:15.113Z,0
2018-05-13T00:45:55.695Z,0
2018-05-13T00:46:36.189Z,0
2018-05-13T00:47:16.932Z,0
2018-05-13T00:47:57.470Z,0
2018-05-13T00:48:38.038Z,0
2018-05-13T00:49:18.569Z,0
2018-05-13T00:49:59.135Z,0
2018-05-13T00:50:39.732Z,0
2018-05-13T00:51:20.301Z,0
2018-05-13T00:52:00.868Z,0
2018-05-13T00:52:41.450Z,0
2018-05-13T00:53:22.223Z,0
2018-05-13T00:54:02.782Z,0
2018-05-13T00:54:43.347Z,0
2018-05-13T00:55:23.908Z,0
2018-05-13T00:56:04.455Z,0
2018-05-13T00:56:45.039Z,0
2018-05-13T00:57:25.660Z,0
2018-05-13T00:58:06.148Z,0
2018-05-13T00:58:46.731Z,0
2018-05-13T00:59:27.237Z,0
2018-05-13T01:00:07.746Z,0
2018-05-13T01:00:48.336Z,0
2018-05-13T01:01:28.849Z,0
2018-05-13T01:02:09.430Z,0
2018-05-13T01:02:49.956Z,0
2018-05-13T01:03:30.447Z,0
2018-05-13T01:04:11.064Z,0
2018-05-13T01:04:51.539Z,0
2018-05-13T01:05:32.166Z,0
2018-05-13T01:06:12.658Z,0
2018-05-13T01:06:53.216Z,0
2018-05-13T01:07:33.759Z,0
2018-05-13T01:08:14.350Z,0
2018-05-13T01:08:54.911Z,0
2018-05-13T01:09:35.472Z,0
2018-05-13T01:10:16.036Z,0
2018-05-13T01:10:56.650Z,0
2018-05-13T01:11:37.125Z,0
2018-05-13T01:12:19.682Z,0
2018-05-13T01:13:00.256Z,0
2018-05-13T01:13:40.796Z,0
2018-05-13T01:14:21.333Z,0
2018-05-13T01:15:01.883Z,0
2018-05-13T01:15:42.455Z,0
2018-05-13T01:16:22.946Z,0
2018-05-13T01:17:03.549Z,0
2018-05-13T01:17:44.110Z,0
2018-05-13T01:18:24.653Z,0
2018-05-13T01:19:05.228Z,0
2018-05-13T01:19:45.845Z,0
2018-05-13T01:20:26.344Z,0
2018-05-13T01:21:06.859Z,0
2018-05-13T01:21:47.481Z,0
2018-05-13T01:22:27.982Z,0
2018-05-13T01:23:08.584Z,0
2018-05-13T01:23:49.138Z,0
2018-05-13T01:24:29.783Z,0
2018-05-13T01:25:10.395Z,0
2018-05-13T01:25:50.860Z,0
2018-05-13T01:26:31.448Z,0
2018-05-13T01:27:11.993Z,0
2018-05-13T01:27:52.532Z,0
2018-05-13T01:28:33.073Z,0
2018-05-13T01:29:13.611Z,0
2018-05-13T01:29:54.108Z,0
2018-05-13T01:30:34.686Z,0
2018-05-13T01:31:15.489Z,0
2018-05-13T01:31:55.985Z,0
2018-05-13T01:32:36.546Z,0
2018-05-13T01:33:17.213Z,0
2018-05-13T01:33:57.787Z,0
2018-05-13T01:34:38.467Z,0
2018-05-13T01:35:19.027Z,0
2018-05-13T01:35:59.603Z,0
2018-05-13T01:36:40.067Z,0
2018-05-13T01:37:20.655Z,0
2018-05-13T01:38:01.179Z,0
2018-05-13T01:38:41.910Z,0
2018-05-13T01:39:22.525Z,0
2018-05-13T01:40:03.091Z,0
2018-05-13T01:40:43.605Z,0
2018-05-13T01:41:24.054Z,0
2018-05-13T01:42:04.557Z,0
2018-05-13T01:42:45.064Z,0
2018-05-13T01:43:25.532Z,0
2018-05-13T01:44:05.983Z,0
2018-05-13T01:44:46.509Z,0
2018-05-13T01:45:26.994Z,0
2018-05-13T01:46:07.470Z,0
2018-05-13T01:46:48.184Z,0
2018-05-13T01:47:28.705Z,0
2018-05-13T01:48:09.216Z,0
2018-05-13T01:48:49.759Z,0
2018-05-13T01:49:30.147Z,0
2018-05-13T01:50:10.639Z,0
2018-05-13T01:50:51.182Z,0
2018-05-13T01:51:31.644Z,0
2018-05-13T01:52:12.145Z,0
2018-05-13T01:52:52.698Z,0
2018-05-13T01:53:33.352Z,0
2018-05-13T01:54:13.791Z,0
2018-05-13T01:54:54.334Z,0
2018-05-13T01:55:34.806Z,0
2018-05-13T01:56:15.310Z,0
2018-05-13T01:56:55.756Z,0
2018-05-13T01:57:36.467Z,0
2018-05-13T01:58:16.949Z,0
2018-05-13T01:58:57.418Z,0
2018-05-13T01:59:37.958Z,0
2018-05-13T02:00:18.725Z,0
2018-05-13T02:00:59.356Z,0
2018-05-13T02:01:39.853Z,0
2018-05-13T02:02:20.365Z,0
2018-05-13T02:03:00.830Z,0
2018-05-13T02:03:41.374Z,0
2018-05-13T02:04:21.857Z,0
2018-05-13T02:05:02.409Z,0
2018-05-13T02:05:42.971Z,0
2018-05-13T02:06:23.448Z,0
2018-05-13T02:07:04.003Z,0
2018-05-13T02:07:44.525Z,0
2018-05-13T02:08:25.125Z,0
2018-05-13T02:09:05.623Z,0
2018-05-13T02:09:46.065Z,0
2018-05-13T02:10:26.734Z,0
2018-05-13T02:11:07.223Z,0
2018-05-13T02:11:47.908Z,0
2018-05-13T02:12:28.503Z,0
2018-05-13T02:13:09.266Z,0
2018-05-13T02:13:49.737Z,0
2018-05-13T02:14:30.271Z,0
2018-05-13T02:15:10.873Z,0
2018-05-13T02:15:51.422Z,0
2018-05-13T02:16:31.965Z,0
2018-05-13T02:17:12.465Z,0
2018-05-13T02:17:53.105Z,0
2018-05-13T02:18:33.345Z,0
2018-05-13T02:19:13.950Z,0
2018-05-13T02:19:54.450Z,0
2018-05-13T02:20:34.916Z,0
2018-05-13T02:21:15.393Z,0
2018-05-13T02:21:55.914Z,0
2018-05-13T02:22:36.432Z,0
2018-05-13T02:23:17.055Z,0
2018-05-13T02:23:57.576Z,0
2018-05-13T02:24:38.027Z,0
2018-05-13T02:25:18.583Z,0
2018-05-13T02:25:59.090Z,0
2018-05-13T02:26:39.647Z,0
2018-05-13T02:27:20.134Z,0
2018-05-13T02:28:00.681Z,0
2018-05-13T02:28:41.152Z,0
2018-05-13T02:29:21.659Z,0
2018-05-13T02:30:02.281Z,0
2018-05-13T02:30:42.728Z,0
2018-05-13T02:31:23.317Z,0
2018-05-13T02:32:03.779Z,0
2018-05-13T02:32:44.390Z,0
2018-05-13T02:33:24.825Z,0
2018-05-13T02:34:05.275Z,0
2018-05-13T02:34:45.800Z,0
2018-05-13T02:35:26.368Z,0
2018-05-13T02:36:06.834Z,0
2018-05-13T02:36:47.369Z,0
2018-05-13T02:37:27.876Z,0
2018-05-13T02:38:08.372Z,0
2018-05-13T02:38:48.857Z,0
2018-05-13T02:39:29.370Z,0
2018-05-13T02:40:09.954Z,0
2018-05-13T02:40:50.530Z,0
2018-05-13T02:41:31.100Z,0
2018-05-13T02:42:11.657Z,0
2018-05-13T02:42:52.098Z,0
2018-05-13T02:43:32.582Z,0
2018-05-13T02:44:13.065Z,0
2018-05-13T02:44:53.574Z,0
2018-05-13T02:45:34.023Z,0
2018-05-13T02:46:14.516Z,0
2018-05-13T02:46:55.080Z,0
2018-05-13T02:47:35.515Z,0
2018-05-13T02:48:16.027Z,0
2018-05-13T02:48:56.475Z,0
2018-05-13T02:49:37.035Z,0
2018-05-13T02:50:17.498Z,0
2018-05-13T02:50:57.948Z,0
2018-05-13T02:51:38.423Z,0
2018-05-13T02:52:19.009Z,0
2018-05-13T02:52:59.485Z,0
2018-05-13T02:53:40.110Z,0
2018-05-13T02:54:20.648Z,0
2018-05-13T02:55:01.234Z,0
2018-05-13T02:55:41.711Z,0
2018-05-13T02:56:22.176Z,0
2018-05-13T02:57:02.665Z,0
2018-05-13T02:57:43.138Z,0
2018-05-13T02:58:23.637Z,0
2018-05-13T02:59:04.161Z,0
2018-05-13T02:59:44.588Z,0
2018-05-13T03:00:25.068Z,0
2018-05-13T03:01:05.698Z,0
2018-05-13T03:01:46.246Z,0
2018-05-13T03:02:26.709Z,0
2018-05-13T03:03:07.247Z,0
2018-05-13T03:03:47.721Z,0
2018-05-13T03:04:28.239Z,0
2018-05-13T03:05:08.707Z,0
2018-05-13T03:05:49.250Z,0
2018-05-13T03:06:29.731Z,0
2018-05-13T03:07:10.230Z,0
2018-05-13T03:07:50.718Z,0
2018-05-13T03:08:31.196Z,0
2018-05-13T03:09:11.689Z,0
2018-05-13T03:09:52.210Z,0
2018-05-13T03:10:32.683Z,0
2018-05-13T03:11:13.152Z,0
2018-05-13T03:11:53.684Z,0
2018-05-13T03:12:34.162Z,0
2018-05-13T03:13:14.627Z,0
2018-05-13T03:13:55.127Z,0
2018-05-13T03:14:35.662Z,0
2018-05-13T03:15:16.401Z,0
2018-05-13T03:15:56.944Z,0
2018-05-13T03:16:37.450Z,0
2018-05-13T03:17:17.933Z,0
2018-05-13T03:17:58.409Z,0
2018-05-13T03:18:38.892Z,0
2018-05-13T03:19:19.380Z,0
2018-05-13T03:19:59.870Z,0
2018-05-13T03:20:40.435Z,0
2018-05-13T03:21:20.876Z,0
2018-05-13T03:22:01.365Z,0
2018-05-13T03:22:41.935Z,0
2018-05-13T03:23:22.449Z,0
2018-05-13T03:24:03.276Z,0
2018-05-13T03:24:43.772Z,0
2018-05-13T03:25:24.276Z,0
2018-05-13T03:26:04.694Z,0
2018-05-13T03:26:45.187Z,0
2018-05-13T03:27:25.721Z,0
2018-05-13T03:28:06.231Z,0
2018-05-13T03:28:46.823Z,0
2018-05-13T03:29:27.288Z,0
2018-05-13T03:30:07.748Z,0
2018-05-13T03:30:48.214Z,0
2018-05-13T03:31:28.765Z,0
2018-05-13T03:32:09.180Z,0
2018-05-13T03:32:49.749Z,0
2018-05-13T03:33:30.201Z,0
2018-05-13T03:34:10.636Z,0
2018-05-13T03:34:51.369Z,0
2018-05-13T03:35:31.824Z,0
2018-05-13T03:36:12.347Z,0
2018-05-13T03:36:52.880Z,0
2018-05-13T03:37:33.384Z,0
2018-05-13T03:38:13.829Z,0
2018-05-13T03:38:54.268Z,0
2018-05-13T03:39:34.738Z,0
2018-05-13T03:40:15.227Z,0
2018-05-13T03:40:55.773Z,0
2018-05-13T03:41:36.219Z,0
2018-05-13T03:42:16.698Z,5
2018-05-13T03:42:57.232Z,5
2018-05-13T03:43:37.685Z,5
2018-05-13T03:44:18.167Z,5
2018-05-13T03:44:58.690Z,5
2018-05-13T03:45:39.140Z,5
2018-05-13T03:46:19.634Z,5
2018-05-13T03:47:00.185Z,5
2018-05-13T03:47:40.618Z,5
2018-05-13T03:48:21.143Z,5
2018-05-13T03:49:01.612Z,5
2018-05-13T03:49:42.013Z,5
2018-05-13T03:50:22.535Z,5
2018-05-13T03:51:03.017Z,5
2018-05-13T03:51:43.574Z,5
2018-05-13T03:52:24.065Z,5
2018-05-13T03:53:04.615Z,5
2018-05-13T03:53:45.069Z,5
2018-05-13T03:54:25.579Z,5
2018-05-13T03:55:06.136Z,5
2018-05-13T03:55:46.494Z,5
2018-05-13T03:56:27.032Z,10
2018-05-13T03:57:07.486Z,10
2018-05-13T03:57:48.172Z,10
2018-05-13T03:58:28.518Z,10
2018-05-13T03:59:09.022Z,10
2018-05-13T03:59:49.524Z,10
2018-05-13T04:00:30.043Z,10
2018-05-13T04:01:10.532Z,10
2018-05-13T04:01:51.000Z,10
2018-05-13T04:02:31.484Z,10
2018-05-13T04:03:11.965Z,10
2018-05-13T04:03:52.444Z,10
2018-05-13T04:04:32.961Z,10
2018-05-13T04:05:13.477Z,10
2018-05-13T04:05:53.947Z,10
2018-05-13T04:06:34.459Z,10
2018-05-13T04:07:14.963Z,10
2018-05-13T04:07:55.423Z,10
2018-05-13T04:08:35.945Z,15
2018-05-13T04:09:16.830Z,15
2018-05-13T04:09:57.329Z,15
2018-05-13T04:10:37.814Z,15
2018-05-13T04:11:18.306Z,15
2018-05-13T04:11:58.826Z,10
2018-05-13T04:12:39.355Z,10
2018-05-13T04:13:19.788Z,10
2018-05-13T04:14:02.366Z,10
2018-05-13T04:14:43.243Z,10
2018-05-13T04:15:23.752Z,10
2018-05-13T04:16:04.228Z,10
2018-05-13T04:16:44.693Z,10
2018-05-13T04:17:25.224Z,10
2018-05-13T04:18:05.688Z,10
2018-05-13T04:18:46.134Z,15
2018-05-13T04:19:26.670Z,15
2018-05-13T04:20:07.294Z,20
2018-05-13T04:20:47.771Z,20
2018-05-13T04:21:28.219Z,25
2018-05-13T04:22:08.700Z,25
2018-05-13T04:22:49.304Z,25
2018-05-13T04:23:29.716Z,30
2018-05-13T04:24:10.193Z,30
2018-05-13T04:24:50.695Z,30
2018-05-13T04:25:31.210Z,30
2018-05-13T04:26:11.747Z,30
2018-05-13T04:26:52.332Z,30
2018-05-13T04:27:32.655Z,30
2018-05-13T04:28:13.162Z,30
2018-05-13T04:28:53.739Z,30
2018-05-13T04:29:34.315Z,25
2018-05-13T04:30:14.789Z,25
2018-05-13T04:30:55.299Z,25
2018-05-13T04:31:35.770Z,30
2018-05-13T04:32:16.235Z,30
2018-05-13T04:32:56.750Z,30
2018-05-13T04:33:38.355Z,30
2018-05-13T04:34:18.930Z,30
2018-05-13T04:34:59.479Z,30
2018-05-13T04:35:40.005Z,30
2018-05-13T04:36:20.664Z,30
2018-05-13T04:37:01.078Z,30
2018-05-13T04:37:41.571Z,30
2018-05-13T04:38:22.179Z,30
2018-05-13T04:39:02.641Z,30
2018-05-13T04:39:43.285Z,30
2018-05-13T04:40:23.633Z,30
2018-05-13T04:41:04.106Z,30
2018-05-13T04:41:44.622Z,30
2018-05-13T04:42:25.173Z,35
2018-05-13T04:43:05.705Z,35
2018-05-13T04:43:46.169Z,40
2018-05-13T04:44:26.643Z,45
2018-05-13T04:45:07.158Z,45
2018-05-13T04:45:47.627Z,45
2018-05-13T04:46:28.104Z,45
2018-05-13T04:47:08.624Z,45
2018-05-13T04:47:49.109Z,45
2018-05-13T04:48:29.536Z,45
2018-05-13T04:49:10.012Z,45
2018-05-13T04:49:50.626Z,45
2018-05-13T04:50:31.118Z,45
2018-05-13T04:51:11.669Z,45
2018-05-13T04:51:52.116Z,50
2018-05-13T04:52:32.652Z,50
2018-05-13T04:53:13.078Z,50
2018-05-13T04:53:53.603Z,50
2018-05-13T04:54:34.078Z,50
2018-05-13T04:55:14.545Z,50
2018-05-13T04:55:55.015Z,45
2018-05-13T04:56:35.495Z,45
2018-05-13T04:57:15.995Z,45
2018-05-13T04:57:56.520Z,45
2018-05-13T04:58:36.986Z,45
2018-05-13T04:59:17.526Z,45
2018-05-13T04:59:58.313Z,45
2018-05-13T05:00:38.955Z,45
2018-05-13T05:01:19.460Z,45
2018-05-13T05:01:59.900Z,40
2018-05-13T05:02:40.831Z,40
2018-05-13T05:03:21.438Z,45
2018-05-13T05:04:01.996Z,45
2018-05-13T05:04:42.624Z,45
2018-05-13T05:05:23.223Z,45
2018-05-13T05:06:03.727Z,45
2018-05-13T05:06:44.260Z,45
2018-05-13T05:07:24.867Z,45
2018-05-13T05:08:05.281Z,45
2018-05-13T05:08:45.732Z,45
2018-05-13T05:09:26.345Z,50
2018-05-13T05:10:06.894Z,50
2018-05-13T05:10:47.384Z,55
2018-05-13T05:11:27.894Z,55
2018-05-13T05:12:08.344Z,55
2018-05-13T05:12:49.593Z,50
2018-05-13T05:13:30.138Z,50
2018-05-13T05:14:10.899Z,50
2018-05-13T05:14:51.799Z,45
2018-05-13T05:15:32.914Z,45
2018-05-13T05:16:13.377Z,45
2018-05-13T05:16:53.855Z,45
2018-05-13T05:17:34.411Z,45
2018-05-13T05:18:14.968Z,45
2018-05-13T05:18:55.451Z,45
2018-05-13T05:19:35.988Z,45
2018-05-13T05:20:16.456Z,50
2018-05-13T05:20:56.958Z,50
2018-05-13T05:21:37.555Z,55
2018-05-13T05:22:18.028Z,60
2018-05-13T05:22:58.641Z,65
2018-05-13T05:23:39.141Z,70
2018-05-13T05:24:19.569Z,70
2018-05-13T05:25:00.074Z,75
2018-05-13T05:25:40.576Z,80
2018-05-13T05:26:21.125Z,80
2018-05-13T05:27:01.619Z,85
2018-05-13T05:27:42.178Z,85
2018-05-13T05:28:22.649Z,90
2018-05-13T05:29:03.151Z,90
2018-05-13T05:29:43.580Z,90
2018-05-13T05:30:24.075Z,90
2018-05-13T05:31:04.598Z,90
2018-05-13T05:31:45.020Z,90
2018-05-13T05:32:25.519Z,90
2018-05-13T05:33:06.335Z,90
2018-05-13T05:33:46.914Z,90
2018-05-13T05:34:27.484Z,90
2018-05-13T05:35:08.171Z,95
2018-05-13T05:35:48.836Z,95
2018-05-13T05:36:29.174Z,95
2018-05-13T05:37:09.708Z,95
2018-05-13T05:37:50.178Z,95
2018-05-13T05:38:30.683Z,95
2018-05-13T05:39:11.184Z,95
2018-05-13T05:39:51.773Z,95
2018-05-13T05:40:32.193Z,90
2018-05-13T05:41:12.803Z,90
2018-05-13T05:41:53.730Z,85
2018-05-13T05:42:34.203Z,85
2018-05-13T05:43:14.689Z,80
2018-05-13T05:43:55.273Z,80
2018-05-13T05:44:35.671Z,80
2018-05-13T05:45:16.209Z,80
2018-05-13T05:45:56.739Z,80
2018-05-13T05:46:37.233Z,80
2018-05-13T05:47:17.867Z,85
2018-05-13T05:47:58.380Z,85
2018-05-13T05:48:39.030Z,85
2018-05-13T05:49:19.485Z,85
2018-05-13T05:50:00.178Z,80
2018-05-13T05:50:40.692Z,80
2018-05-13T05:51:21.119Z,80
2018-05-13T05:52:01.696Z,80
2018-05-13T05:52:42.284Z,75
2018-05-13T05:53:23.161Z,75
2018-05-13T05:54:03.638Z,75
2018-05-13T05:54:44.171Z,70
2018-05-13T05:55:24.658Z,70
2018-05-13T05:56:07.370Z,70
2018-05-13T05:56:47.805Z,65
2018-05-13T05:57:28.325Z,65
2018-05-13T05:58:08.798Z,65
2018-05-13T05:58:49.277Z,60
2018-05-13T05:59:29.806Z,60
2018-05-13T06:00:10.250Z,60
2018-05-13T06:00:50.816Z,60
2018-05-13T06:01:31.425Z,65
2018-05-13T06:02:11.934Z,65
2018-05-13T06:02:52.584Z,60
2018-05-13T06:03:33.085Z,60
2018-05-13T06:04:13.603Z,60
2018-05-13T06:04:54.089Z,60
2018-05-13T06:05:34.579Z,60
2018-05-13T06:06:15.235Z,60
2018-05-13T06:06:55.963Z,60
2018-05-13T06:07:36.901Z,60
2018-05-13T06:08:17.384Z,60
2018-05-13T06:08:58.180Z,60
2018-05-13T06:09:38.751Z,65
2018-05-13T06:10:19.229Z,65
2018-05-13T06:10:59.832Z,70
2018-05-13T06:11:40.224Z,70
2018-05-13T06:12:23.543Z,75
2018-05-13T06:13:04.079Z,80
2018-05-13T06:13:44.972Z,80
2018-05-13T06:14:25.834Z,80
2018-05-13T06:15:06.363Z,80
2018-05-13T06:15:47.466Z,80
2018-05-13T06:16:27.944Z,75
2018-05-13T06:17:08.650Z,70
2018-05-13T06:17:49.334Z,65
2018-05-13T06:18:30.231Z,60
2018-05-13T06:19:10.731Z,55
2018-05-13T06:19:51.323Z,55
2018-05-13T06:20:31.806Z,50
2018-05-13T06:21:12.374Z,50
2018-05-13T06:21:52.910Z,50
2018-05-13T06:22:33.362Z,50
2018-05-13T06:23:13.909Z,50
2018-05-13T06:23:54.464Z,50
2018-05-13T06:24:35.095Z,45
2018-05-13T06:25:15.565Z,45
2018-05-13T06:25:56.130Z,40
2018-05-13T06:26:37.160Z,40
2018-05-13T06:27:17.045Z,40
2018-05-13T06:27:57.827Z,40
2018-05-13T06:28:38.565Z,40
2018-05-13T06:29:19.187Z,40
2018-05-13T06:29:59.590Z,45
2018-05-13T06:30:40.067Z,45
2018-05-13T06:31:20.767Z,50
2018-05-13T06:32:01.996Z,55
2018-05-13T06:32:42.468Z,60
2018-05-13T06:33:23.452Z,60
2018-05-13T06:34:03.667Z,60
2018-05-13T06:34:44.151Z,65
2018-05-13T06:35:24.718Z,65
2018-05-13T06:36:05.179Z,70
2018-05-13T06:36:46.007Z,70
2018-05-13T06:37:26.359Z,65
2018-05-13T06:38:06.851Z,65
2018-05-13T06:38:47.460Z,60
2018-05-13T06:39:27.957Z,60
2018-05-13T06:40:08.477Z,55
2018-05-13T06:40:48.964Z,55
2018-05-13T06:41:29.431Z,50
2018-05-13T06:42:10.353Z,45
2018-05-13T06:42:50.898Z,45
2018-05-13T06:43:31.374Z,40
2018-05-13T06:44:11.876Z,35
2018-05-13T06:44:52.454Z,30
2018-05-13T06:45:33.665Z,30
2018-05-13T06:46:13.409Z,35
2018-05-13T06:46:53.938Z,40
2018-05-13T06:47:34.409Z,40
2018-05-13T06:48:15.689Z,45
2018-05-13T06:48:56.259Z,50
2018-05-13T06:49:36.745Z,55
2018-05-13T06:50:17.520Z,60
2018-05-13T06:50:58.306Z,65
2018-05-13T06:51:38.834Z,70
2018-05-13T06:52:19.258Z,80
2018-05-13T06:52:59.872Z,75
2018-05-13T06:53:40.385Z,80
2018-05-13T06:54:20.882Z,85
2018-05-13T06:55:01.429Z,85
2018-05-13T06:55:42.365Z,85
2018-05-13T06:56:22.853Z,85
2018-05-13T06:57:03.306Z,80
2018-05-13T06:57:43.801Z,70
2018-05-13T06:58:24.401Z,65
2018-05-13T06:59:04.871Z,60
2018-05-13T06:59:45.937Z,60
2018-05-13T07:00:26.716Z,55
2018-05-13T07:01:07.216Z,55
2018-05-13T07:01:48.027Z,55
2018-05-13T07:02:28.745Z,55
2018-05-13T07:03:09.332Z,45
2018-05-13T07:03:49.886Z,45
2018-05-13T07:04:30.852Z,45
2018-05-13T07:05:11.544Z,40
2018-05-13T07:05:53.192Z,40
2018-05-13T07:06:33.887Z,40
2018-05-13T07:07:14.665Z,40
2018-05-13T07:07:55.250Z,40
2018-05-13T07:08:35.912Z,40
2018-05-13T07:09:16.451Z,40
2018-05-13T07:09:58.084Z,40
2018-05-13T07:10:39.044Z,45
2018-05-13T07:11:19.535Z,50
2018-05-13T07:12:00.227Z,50
2018-05-13T07:12:40.952Z,50
2018-05-13T07:13:22.114Z,55
2018-05-13T07:14:03.076Z,55
2018-05-13T07:14:43.506Z,60
2018-05-13T07:15:23.968Z,65
2018-05-13T07:16:04.551Z,65
2018-05-13T07:16:45.038Z,65
2018-05-13T07:17:27.411Z,65
2018-05-13T07:18:07.925Z,60
2018-05-13T07:18:48.481Z,65
2018-05-13T07:19:28.946Z,65
2018-05-13T07:20:09.406Z,55
2018-05-13T07:20:50.260Z,50
2018-05-13T07:21:30.709Z,55
2018-05-13T07:22:11.201Z,55
2018-05-13T07:22:52.064Z,55
2018-05-13T07:23:32.515Z,50
2018-05-13T07:24:13.270Z,50
2018-05-13T07:24:54.517Z,50
2018-05-13T07:25:35.147Z,45
2018-05-13T07:26:15.527Z,40
2018-05-13T07:26:56.083Z,45
2018-05-13T07:27:36.588Z,40
2018-05-13T07:28:17.163Z,35
2018-05-13T07:28:57.852Z,30
2018-05-13T07:29:38.917Z,30
2018-05-13T07:30:19.350Z,30
2018-05-13T07:30:59.916Z,30
2018-05-13T07:31:40.335Z,30
2018-05-13T07:32:20.877Z,35
2018-05-13T07:33:01.546Z,35
2018-05-13T07:33:42.063Z,30
2018-05-13T07:34:22.650Z,30
2018-05-13T07:35:03.223Z,30
2018-05-13T07:35:43.627Z,25
2018-05-13T07:36:24.878Z,25
2018-05-13T07:37:05.318Z,25
2018-05-13T07:37:45.768Z,25
2018-05-13T07:38:26.246Z,25
2018-05-13T07:39:06.992Z,25
2018-05-13T07:39:47.758Z,25
2018-05-13T07:40:28.300Z,35
2018-05-13T07:41:08.988Z,45
2018-05-13T07:41:49.512Z,55
2018-05-13T07:42:30.886Z,65
2018-05-13T07:43:10.943Z,70
2018-05-13T07:43:51.362Z,70
2018-05-13T07:44:31.860Z,70
2018-05-13T07:45:13.998Z,65
2018-05-13T07:45:54.638Z,50
2018-05-13T07:46:35.211Z,50
2018-05-13T07:47:15.691Z,45
2018-05-13T07:47:56.196Z,35
2018-05-13T07:48:36.714Z,30
2018-05-13T07:49:17.196Z,35
2018-05-13T07:49:57.665Z,35
2018-05-13T07:50:38.225Z,35
2018-05-13T07:51:18.866Z,35
2018-05-13T07:51:59.568Z,40
2018-05-13T07:52:40.105Z,45
2018-05-13T07:53:20.546Z,55
2018-05-13T07:54:01.325Z,65
2018-05-13T07:54:41.956Z,65
2018-05-13T07:55:22.601Z,65
2018-05-13T07:56:03.184Z,70
2018-05-13T07:56:43.741Z,75
2018-05-13T07:57:24.973Z,75
2018-05-13T07:58:06.331Z,75
2018-05-13T07:58:47.703Z,80
2018-05-13T07:59:29.045Z,85
2018-05-13T08:00:10.480Z,85
2018-05-13T08:00:51.746Z,90
2018-05-13T08:01:33.147Z,100
2018-05-13T08:02:14.716Z,110
2018-05-13T08:02:56.017Z,120
2018-05-13T08:03:37.365Z,130
2018-05-13T08:04:19.227Z,140
2018-05-13T08:05:00.634Z,145
2018-05-13T08:05:42.027Z,150
2018-05-13T08:06:23.378Z,165
2018-05-13T08:07:05.232Z,175
2018-05-13T08:07:46.198Z,205
2018-05-13T08:08:27.495Z,220
2018-05-13T08:09:09.622Z,245
2018-05-13T08:09:50.859Z,250
2018-05-13T08:10:32.180Z,235
2018-05-13T08:11:13.451Z,205
2018-05-13T08:11:54.772Z,190
2018-05-13T08:12:36.221Z,235
2018-05-13T08:13:17.567Z,265
2018-05-13T08:13:59.136Z,340
2018-05-13T08:14:40.348Z,355
2018-05-13T08:15:21.745Z,330
2018-05-13T08:16:02.931Z,350
2018-05-13T08:16:44.455Z,375
2018-05-13T08:17:25.892Z,375
2018-05-13T08:18:07.156Z,390
2018-05-13T08:18:48.469Z,370
2018-05-13T08:19:29.879Z,355
2018-05-13T08:20:11.092Z,310
2018-05-13T08:20:52.437Z,285
2018-05-13T08:21:33.761Z,220
2018-05-13T08:22:15.044Z,240
2018-05-13T08:22:56.311Z,275
2018-05-13T08:23:37.600Z,255
2018-05-13T08:24:18.870Z,260
2018-05-13T08:25:00.185Z,225
2018-05-13T08:25:41.451Z,220
2018-05-13T08:26:22.710Z,205
2018-05-13T08:27:03.712Z,210
2018-05-13T08:27:44.237Z,210
2018-05-13T08:28:24.914Z,180
2018-05-13T08:29:05.456Z,165
2018-05-13T08:29:45.913Z,165
2018-05-13T08:30:26.468Z,180
2018-05-13T08:31:06.936Z,175
2018-05-13T08:31:47.429Z,175
2018-05-13T08:32:28.026Z,175
2018-05-13T08:33:08.514Z,165
2018-05-13T08:33:49.034Z,155
2018-05-13T08:34:29.508Z,160
2018-05-13T08:35:10.049Z,145
2018-05-13T08:35:51.453Z,155
2018-05-13T08:36:31.989Z,125
2018-05-13T08:37:12.461Z,130
2018-05-13T08:37:52.965Z,115
2018-05-13T08:38:33.489Z,90
2018-05-13T08:39:13.965Z,80
2018-05-13T08:39:54.462Z,80
2018-05-13T08:40:35.016Z,80
2018-05-13T08:41:15.515Z,75
2018-05-13T08:41:56.127Z,80
2018-05-13T08:42:36.550Z,85
2018-05-13T08:43:17.063Z,75
2018-05-13T08:43:57.583Z,75
2018-05-13T08:44:38.132Z,75
2018-05-13T08:45:18.660Z,75
2018-05-13T08:45:59.155Z,80
2018-05-13T08:46:39.673Z,80
2018-05-13T08:47:20.127Z,80
2018-05-13T08:48:00.750Z,80
2018-05-13T08:48:41.484Z,85
2018-05-13T08:49:22.054Z,65
2018-05-13T08:50:02.539Z,60
2018-05-13T08:50:43.683Z,60
2018-05-13T08:51:24.204Z,55
2018-05-13T08:52:04.913Z,55
2018-05-13T08:52:45.355Z,60
2018-05-13T08:53:26.112Z,65
2018-05-13T08:54:06.677Z,80
2018-05-13T08:54:47.451Z,105
2018-05-13T08:55:27.934Z,115
2018-05-13T08:56:08.538Z,105
2018-05-13T08:56:49.054Z,105
2018-05-13T08:57:29.796Z,105
2018-05-13T08:58:11.178Z,115
2018-05-13T08:58:51.720Z,115
2018-05-13T08:59:32.346Z,100
2018-05-13T09:00:12.845Z,90
2018-05-13T09:00:53.256Z,70
2018-05-13T09:01:34.050Z,60
2018-05-13T09:02:14.578Z,45
2018-05-13T09:02:55.223Z,40
2018-05-13T09:03:36.188Z,35
2018-05-13T09:04:16.465Z,35
2018-05-13T09:04:57.142Z,35
2018-05-13T09:05:37.631Z,35
2018-05-13T09:06:18.377Z,45
2018-05-13T09:06:58.889Z,45
2018-05-13T09:07:39.398Z,45
2018-05-13T09:08:20.004Z,45
2018-05-13T09:09:00.577Z,50
2018-05-13T09:09:41.146Z,50
2018-05-13T09:10:21.686Z,45
2018-05-13T09:11:02.378Z,45
2018-05-13T09:11:42.886Z,45
2018-05-13T09:12:23.370Z,45
2018-05-13T09:13:04.017Z,50
2018-05-13T09:13:44.556Z,45
2018-05-13T09:14:25.128Z,45
2018-05-13T09:15:05.670Z,50
2018-05-13T09:15:46.164Z,50
2018-05-13T09:16:26.656Z,60
2018-05-13T09:17:07.253Z,60
2018-05-13T09:17:48.159Z,65
2018-05-13T09:18:28.636Z,65
2018-05-13T09:19:09.379Z,70
2018-05-13T09:19:49.962Z,75
2018-05-13T09:20:30.826Z,80
2018-05-13T09:21:11.110Z,85
2018-05-13T09:21:52.130Z,90
2018-05-13T09:22:32.809Z,100
2018-05-13T09:23:13.260Z,100
2018-05-13T09:23:53.724Z,105
2018-05-13T09:24:34.366Z,105
2018-05-13T09:25:14.817Z,105
2018-05-13T09:25:55.420Z,110
2018-05-13T09:26:36.222Z,105
2018-05-13T09:27:16.834Z,95
2018-05-13T09:27:57.596Z,95
2018-05-13T09:28:38.282Z,85
2018-05-13T09:29:18.646Z,80
2018-05-13T09:29:59.361Z,80
2018-05-13T09:30:39.655Z,80
2018-05-13T09:31:20.163Z,70
2018-05-13T09:32:00.800Z,70
2018-05-13T09:32:41.198Z,70
2018-05-13T09:33:21.736Z,70
2018-05-13T09:34:02.185Z,70
2018-05-13T09:34:43.112Z,65
2018-05-13T09:35:23.910Z,65
2018-05-13T09:36:04.657Z,65
2018-05-13T09:36:45.196Z,60
2018-05-13T09:37:25.690Z,65
2018-05-13T09:38:06.216Z,65
2018-05-13T09:38:46.684Z,65
2018-05-13T09:39:27.242Z,60
2018-05-13T09:40:07.669Z,65
2018-05-13T09:40:48.192Z,65
2018-05-13T09:41:28.729Z,60
2018-05-13T09:42:09.292Z,65
2018-05-13T09:42:50.083Z,65
2018-05-13T09:43:30.625Z,70
2018-05-13T09:44:11.098Z,70
2018-05-13T09:44:51.845Z,70
2018-05-13T09:45:32.149Z,70
2018-05-13T09:46:12.654Z,60